La Cumbre, Argentina
Current Conditions -  °F | °C
As of 11:00 PM on Friday 28 Nov 2014 (Local Time) from SAOC Reporting Station
Clear Clear  
Wind Chill: 77°   Ceiling: Unl
Heat Index: 78°   Visibility: 6mi
Dew Point: 52°   Wind: 18mph
Humidity: 41%   Direction: 360°N
Pressure: 29.71"   Gusts: NA
Location:  33.73°S, 64.17°W
Report Text: SAOC 290200Z 36016KT CAVOK 25/11 Q1006
Loading
Personal Weather Stations






























Interactive Weather Map New forecast layout! Learn more

10-Day Weather Forecast

Advertisements
Track Severe Weather on mobile